createdAt,value
2022-10-11T00:00:11.554Z,100.00
2022-10-11T00:02:38.624Z,100.00
2022-10-11T00:05:05.949Z,100.00
2022-10-11T00:07:33.120Z,100.00
2022-10-11T00:10:00.197Z,100.00
2022-10-11T00:12:27.524Z,100.00
2022-10-11T00:14:54.532Z,100.00
2022-10-11T00:17:21.554Z,100.00
2022-10-11T00:19:49.138Z,100.00
2022-10-11T00:22:16.231Z,100.00
2022-10-11T00:24:43.311Z,100.00
2022-10-11T00:27:10.426Z,100.00
2022-10-11T00:29:37.945Z,100.00
2022-10-11T00:32:05.133Z,100.00
2022-10-11T00:34:33.032Z,100.00
2022-10-11T00:37:00.134Z,100.00
2022-10-11T00:39:27.323Z,100.00
2022-10-11T00:41:54.534Z,100.00
2022-10-11T00:44:22.675Z,100.00
2022-10-11T00:46:55.689Z,100.00
2022-10-11T00:49:32.551Z,100.00
2022-10-11T00:52:03.406Z,100.00
2022-10-11T00:54:31.056Z,100.00
2022-10-11T00:56:59.591Z,100.00
2022-10-11T00:59:28.194Z,100.00
2022-10-11T01:01:55.465Z,100.00
2022-10-11T01:04:22.879Z,100.00
2022-10-11T01:06:51.002Z,100.00
2022-10-11T01:09:19.128Z,100.00
2022-10-11T01:11:49.817Z,100.00
2022-10-11T01:14:25.506Z,100.00
2022-10-11T01:16:54.843Z,100.00
2022-10-11T01:19:40.316Z,100.00
2022-10-11T01:22:23.505Z,100.00
2022-10-11T01:24:59.658Z,100.00
2022-10-11T01:27:29.509Z,100.00
2022-10-11T01:30:14.835Z,100.00
2022-10-11T01:33:00.867Z,100.00
2022-10-11T01:35:29.852Z,100.00
2022-10-11T01:38:01.934Z,100.00
2022-10-11T01:40:31.656Z,99.93
2022-10-11T01:42:58.797Z,100.00
2022-10-11T01:45:25.809Z,100.00
2022-10-11T01:48:03.357Z,100.00
2022-10-11T01:50:33.871Z,100.00
2022-10-11T01:53:04.043Z,100.00
2022-10-11T01:55:35.134Z,100.00
2022-10-11T01:58:05.383Z,100.00
2022-10-11T02:00:35.129Z,99.76
2022-10-11T02:03:05.041Z,99.51
2022-10-11T02:05:47.860Z,99.66
2022-10-11T02:08:17.930Z,99.07
2022-10-11T02:10:46.766Z,99.60
2022-10-11T02:13:24.315Z,99.27
2022-10-11T02:15:51.353Z,99.46
2022-10-11T02:18:20.799Z,99.52
2022-10-11T02:20:48.000Z,99.83
2022-10-11T02:23:20.708Z,99.93
2022-10-11T02:25:47.898Z,100.00
2022-10-11T02:28:16.182Z,100.00
2022-10-11T02:30:44.253Z,100.00
2022-10-11T02:33:11.719Z,100.00
2022-10-11T02:35:42.014Z,100.00
2022-10-11T02:38:28.032Z,100.00
2022-10-11T02:40:56.593Z,100.00
2022-10-11T02:43:26.056Z,100.00
2022-10-11T02:45:54.273Z,100.00
2022-10-11T02:48:21.337Z,100.00
2022-10-11T02:50:48.368Z,100.00
2022-10-11T02:53:15.595Z,100.00
2022-10-11T02:55:42.596Z,100.00
2022-10-11T02:58:09.641Z,100.00
2022-10-11T03:00:37.425Z,100.00
2022-10-11T03:03:04.584Z,100.00
2022-10-11T03:05:35.496Z,100.00
2022-10-11T03:08:02.973Z,100.00
2022-10-11T03:10:30.075Z,100.00
2022-10-11T03:12:57.964Z,100.00
2022-10-11T03:15:25.039Z,100.00
2022-10-11T03:17:53.310Z,100.00
2022-10-11T03:20:20.376Z,100.00
2022-10-11T03:22:47.441Z,100.00
2022-10-11T03:25:14.451Z,100.00
2022-10-11T03:27:42.423Z,99.88
2022-10-11T03:30:12.504Z,99.86
2022-10-11T03:32:41.290Z,100.00
2022-10-11T03:35:08.746Z,100.00
2022-10-11T03:37:35.794Z,100.00
2022-10-11T03:40:03.476Z,100.00
2022-10-11T03:42:30.577Z,100.00
2022-10-11T03:44:59.761Z,100.00
2022-10-11T03:47:26.777Z,99.83
2022-10-11T03:49:53.828Z,100.00
2022-10-11T03:52:20.953Z,99.17
2022-10-11T03:54:49.177Z,99.48
2022-10-11T03:57:16.206Z,99.14
2022-10-11T03:59:43.801Z,99.06
2022-10-11T04:02:10.958Z,98.31
2022-10-11T04:04:38.163Z,98.64
2022-10-11T04:07:05.459Z,98.56
2022-10-11T04:09:32.672Z,98.09
2022-10-11T04:12:03.030Z,98.13
2022-10-11T04:14:33.546Z,97.46
2022-10-11T04:17:01.145Z,97.58
2022-10-11T04:19:28.241Z,97.87
2022-10-11T04:21:55.278Z,97.71
2022-10-11T04:24:22.298Z,97.26
2022-10-11T04:26:49.348Z,97.14
2022-10-11T04:29:16.419Z,96.73
2022-10-11T04:31:44.016Z,95.90
2022-10-11T04:34:11.056Z,96.36
2022-10-11T04:36:39.143Z,96.17
2022-10-11T04:39:06.503Z,95.14
2022-10-11T04:41:33.631Z,95.93
2022-10-11T04:44:01.002Z,95.25
2022-10-11T04:46:28.145Z,94.37
2022-10-11T04:48:55.757Z,95.81
2022-10-11T04:51:22.881Z,94.51
2022-10-11T04:53:49.919Z,94.13
2022-10-11T04:56:18.509Z,93.68
2022-10-11T04:58:47.890Z,94.33
2022-10-11T05:01:16.120Z,93.96
2022-10-11T05:03:43.212Z,93.41
2022-10-11T05:06:10.558Z,93.32
2022-10-11T05:08:38.625Z,93.35
2022-10-11T05:11:07.838Z,93.25
2022-10-11T05:13:35.092Z,92.48
2022-10-11T05:16:05.784Z,91.75
2022-10-11T05:18:35.860Z,92.17
2022-10-11T05:21:03.353Z,92.29
2022-10-11T05:23:31.377Z,92.07
2022-10-11T05:25:58.653Z,92.43
2022-10-11T05:28:26.603Z,91.84
2022-10-11T05:30:54.260Z,92.57
2022-10-11T05:33:21.303Z,91.77
2022-10-11T05:35:48.386Z,91.77
2022-10-11T05:38:16.563Z,91.81
2022-10-11T05:40:43.860Z,91.86
2022-10-11T05:43:11.175Z,91.48
2022-10-11T05:45:38.502Z,92.12
2022-10-11T05:48:05.917Z,91.06
2022-10-11T05:50:33.898Z,90.93
2022-10-11T05:53:01.730Z,91.11
2022-10-11T05:55:28.776Z,91.04
2022-10-11T05:57:56.047Z,90.53
2022-10-11T06:00:23.386Z,90.96
2022-10-11T06:02:50.519Z,90.79
2022-10-11T06:05:18.091Z,90.96
2022-10-11T06:07:45.670Z,91.04
2022-10-11T06:10:15.986Z,90.44
2022-10-11T06:12:43.082Z,91.33
2022-10-11T06:15:11.381Z,91.68
2022-10-11T06:17:38.430Z,91.43
2022-10-11T06:20:07.498Z,91.39
2022-10-11T06:22:34.797Z,90.78
2022-10-11T06:25:01.971Z,90.77
2022-10-11T06:27:30.202Z,90.67
2022-10-11T06:29:57.287Z,91.47
2022-10-11T06:32:24.367Z,91.64
2022-10-11T06:34:51.955Z,90.67
2022-10-11T06:37:19.137Z,88.99
2022-10-11T06:39:47.970Z,88.95
2022-10-11T06:42:15.013Z,87.28
2022-10-11T06:44:42.037Z,86.94
2022-10-11T06:47:09.343Z,85.64
2022-10-11T06:49:36.815Z,86.01
2022-10-11T06:52:04.065Z,85.00
2022-10-11T06:54:31.258Z,84.93
2022-10-11T06:56:58.449Z,83.95
2022-10-11T06:59:25.660Z,83.48
2022-10-11T07:01:52.690Z,81.79
2022-10-11T07:04:19.829Z,80.39
2022-10-11T07:06:48.174Z,79.77
2022-10-11T07:09:15.407Z,80.93
2022-10-11T07:11:47.834Z,80.50
2022-10-11T07:14:15.267Z,79.15
2022-10-11T07:16:46.034Z,76.99
2022-10-11T07:19:13.229Z,71.38
2022-10-11T07:21:40.531Z,66.92
2022-10-11T07:24:07.668Z,64.80
2022-10-11T07:26:38.595Z,67.15
2022-10-11T07:29:07.126Z,71.32
2022-10-11T07:31:34.912Z,74.02
2022-10-11T07:34:02.037Z,69.79
2022-10-11T07:36:29.402Z,68.54
2022-10-11T07:38:56.447Z,69.14
2022-10-11T07:41:23.505Z,72.00
2022-10-11T07:43:51.275Z,69.96
2022-10-11T07:46:18.469Z,66.53
2022-10-11T07:48:50.140Z,59.88
2022-10-11T07:51:18.152Z,57.74
2022-10-11T07:53:45.866Z,51.55
2022-10-11T07:56:13.666Z,51.94
2022-10-11T07:58:41.185Z,48.37
2022-10-11T08:01:08.523Z,47.39
2022-10-11T08:03:36.632Z,47.29
2022-10-11T08:06:04.549Z,43.75
2022-10-11T08:08:32.066Z,43.69
2022-10-11T08:11:03.194Z,42.76
2022-10-11T08:13:30.370Z,45.11
2022-10-11T08:15:57.514Z,39.39
2022-10-11T08:18:24.742Z,39.81
2022-10-11T08:20:51.825Z,37.36
2022-10-11T08:23:19.229Z,37.13
2022-10-11T08:25:46.973Z,39.87
2022-10-11T08:28:17.893Z,40.99
2022-10-11T08:30:52.295Z,37.79
2022-10-11T08:33:19.390Z,39.13
2022-10-11T08:35:46.565Z,39.01
2022-10-11T08:38:13.617Z,38.37
2022-10-11T08:40:53.944Z,36.21
2022-10-11T08:43:33.387Z,37.08
2022-10-11T08:46:01.125Z,38.34
2022-10-11T08:48:38.767Z,38.53
2022-10-11T08:51:08.732Z,35.30
2022-10-11T08:53:56.368Z,33.93
2022-10-11T08:56:23.458Z,36.42
2022-10-11T08:58:55.621Z,35.94
2022-10-11T09:01:26.291Z,34.59
2022-10-11T09:03:53.597Z,35.22
2022-10-11T09:06:24.029Z,35.27
2022-10-11T09:08:57.570Z,37.36
2022-10-11T09:11:45.668Z,37.01
2022-10-11T09:14:32.515Z,35.75
2022-10-11T09:17:06.410Z,35.51
2022-10-11T09:19:42.724Z,36.35
2022-10-11T09:22:15.630Z,35.04
2022-10-11T09:24:53.338Z,34.32
2022-10-11T09:27:50.194Z,35.32
2022-10-11T09:30:17.519Z,33.31
2022-10-11T09:32:51.890Z,34.50
2022-10-11T09:35:19.898Z,34.02
2022-10-11T09:38:00.969Z,33.04
2022-10-11T09:40:45.073Z,32.81
2022-10-11T09:43:12.188Z,34.43
2022-10-11T09:45:49.237Z,34.29
2022-10-11T09:48:18.482Z,34.97
2022-10-11T09:50:45.595Z,35.14
2022-10-11T09:53:12.682Z,35.28
2022-10-11T09:55:46.923Z,34.20
2022-10-11T09:58:22.819Z,34.32
2022-10-11T10:00:56.813Z,32.39
2022-10-11T10:03:31.045Z,31.09
2022-10-11T10:06:09.158Z,31.66
2022-10-11T10:08:38.295Z,36.10
2022-10-11T10:11:06.120Z,37.09
2022-10-11T10:13:43.970Z,37.18
2022-10-11T10:16:19.812Z,35.41
2022-10-11T10:18:51.765Z,33.68
2022-10-11T10:21:19.460Z,33.65
2022-10-11T10:23:46.531Z,32.79
2022-10-11T10:26:17.878Z,34.37
2022-10-11T10:28:56.592Z,32.93
2022-10-11T10:31:25.496Z,32.72
2022-10-11T10:33:53.235Z,33.04
2022-10-11T10:36:22.325Z,32.41
2022-10-11T10:38:52.213Z,32.85
2022-10-11T10:41:19.614Z,31.34
2022-10-11T10:43:52.248Z,31.29
2022-10-11T10:46:34.587Z,31.88
2022-10-11T10:49:48.787Z,34.41
2022-10-11T10:52:17.037Z,34.98
2022-10-11T10:55:02.844Z,36.02
2022-10-11T10:57:42.265Z,37.43
2022-10-11T11:00:15.319Z,36.58
2022-10-11T11:02:57.312Z,35.37
2022-10-11T11:05:43.845Z,36.00
2022-10-11T11:08:29.824Z,36.34
2022-10-11T11:10:59.856Z,35.72
2022-10-11T11:13:45.527Z,35.02
2022-10-11T11:16:19.046Z,35.62
2022-10-11T11:18:46.107Z,36.95
2022-10-11T11:21:30.248Z,38.17
2022-10-11T11:24:07.003Z,40.67
2022-10-11T11:26:41.972Z,46.26
2022-10-11T11:29:24.244Z,45.83
2022-10-11T11:31:57.976Z,42.70
2022-10-11T11:34:38.550Z,41.07
2022-10-11T11:37:06.810Z,40.10
2022-10-11T11:39:39.433Z,41.08
2022-10-11T11:42:17.700Z,40.87
2022-10-11T11:44:48.399Z,40.92
2022-10-11T11:47:20.853Z,40.20
2022-10-11T11:50:01.741Z,40.05
2022-10-11T11:52:29.656Z,42.11
2022-10-11T11:55:03.761Z,43.34
2022-10-11T11:57:35.757Z,42.47
2022-10-11T12:00:07.786Z,42.78
2022-10-11T12:02:47.254Z,44.66
2022-10-11T12:05:15.841Z,45.61
2022-10-11T12:07:48.968Z,47.96
2022-10-11T12:10:23.806Z,46.04
2022-10-11T12:13:03.049Z,48.74
2022-10-11T12:15:30.367Z,50.34
2022-10-11T12:17:57.674Z,49.42
2022-10-11T12:20:27.769Z,49.89
2022-10-11T12:23:00.461Z,52.47
2022-10-11T12:25:28.736Z,52.37
2022-10-11T12:27:56.352Z,47.99
2022-10-11T12:30:42.265Z,51.44
2022-10-11T12:33:15.301Z,48.44
2022-10-11T12:35:54.869Z,44.67
2022-10-11T12:38:29.351Z,47.15
2022-10-11T12:41:02.932Z,48.31
2022-10-11T12:43:32.481Z,45.63
2022-10-11T12:46:19.299Z,47.49
2022-10-11T12:48:51.342Z,50.19
2022-10-11T12:51:24.549Z,48.87
2022-10-11T12:54:14.428Z,49.95
2022-10-11T12:56:57.221Z,49.29
2022-10-11T12:59:24.278Z,51.95
2022-10-11T13:01:52.090Z,48.21
2022-10-11T13:04:25.554Z,48.55
2022-10-11T13:06:56.948Z,46.94
2022-10-11T13:09:29.544Z,50.40
2022-10-11T13:12:04.124Z,48.00
2022-10-11T13:14:35.967Z,48.33
2022-10-11T13:17:03.967Z,48.65
2022-10-11T13:19:31.803Z,51.85
2022-10-11T13:22:00.217Z,51.48
2022-10-11T13:24:27.966Z,51.09
2022-10-11T13:26:55.555Z,53.84
2022-10-11T13:29:33.835Z,55.94
2022-10-11T13:32:01.438Z,57.44
2022-10-11T13:34:32.963Z,59.06
2022-10-11T13:37:02.356Z,60.54
2022-10-11T13:39:31.525Z,62.57
2022-10-11T13:42:00.199Z,63.20
2022-10-11T13:44:27.471Z,65.06
2022-10-11T13:46:54.581Z,66.04
2022-10-11T13:49:24.647Z,66.00
2022-10-11T13:52:01.595Z,66.81
2022-10-11T13:54:48.765Z,67.98
2022-10-11T13:57:15.843Z,67.79
2022-10-11T13:59:43.045Z,67.58
2022-10-11T14:02:21.493Z,65.54
2022-10-11T14:04:49.087Z,64.53
2022-10-11T14:07:26.673Z,65.43
2022-10-11T14:09:53.896Z,66.15
2022-10-11T14:12:33.553Z,67.38
2022-10-11T14:15:00.874Z,67.53
2022-10-11T14:17:34.313Z,68.75
2022-10-11T14:20:13.553Z,70.23
2022-10-11T14:22:40.696Z,69.78
2022-10-11T14:25:07.774Z,70.86
2022-10-11T14:27:35.223Z,70.76
2022-10-11T14:32:51.893Z,71.67
2022-10-11T14:35:19.284Z,71.73
2022-10-11T14:37:46.508Z,71.76
2022-10-11T14:40:14.966Z,71.26
2022-10-11T14:42:42.083Z,71.79
2022-10-11T14:45:10.888Z,71.91
2022-10-11T14:47:42.792Z,71.18
2022-10-11T14:50:18.805Z,71.65
2022-10-11T14:52:46.661Z,72.46
2022-10-11T14:55:13.668Z,72.39
2022-10-11T14:57:40.698Z,72.18
2022-10-11T15:00:15.254Z,72.78
2022-10-11T15:02:42.613Z,73.51
2022-10-11T15:05:09.894Z,74.03
2022-10-11T15:07:36.998Z,73.92
2022-10-11T15:10:06.399Z,74.10
2022-10-11T15:12:33.906Z,74.24
2022-10-11T15:15:01.564Z,74.88
2022-10-11T15:17:28.704Z,74.75
2022-10-11T15:19:55.779Z,75.57
2022-10-11T15:22:22.790Z,76.01
2022-10-11T15:24:51.770Z,76.46
2022-10-11T15:27:18.965Z,75.93
2022-10-11T15:29:47.018Z,75.83
2022-10-11T15:32:14.625Z,76.75
2022-10-11T15:34:42.388Z,76.51
2022-10-11T15:37:09.466Z,76.56
2022-10-11T15:39:37.203Z,76.54
2022-10-11T15:42:04.385Z,76.82
2022-10-11T15:44:31.694Z,76.33
2022-10-11T15:46:59.038Z,76.54
2022-10-11T15:49:26.191Z,76.18
2022-10-11T15:51:53.329Z,75.99
2022-10-11T15:54:20.440Z,76.54
2022-10-11T15:56:47.535Z,75.97
2022-10-11T15:59:14.572Z,76.64
2022-10-11T16:01:41.736Z,76.01
2022-10-11T16:04:09.395Z,75.81
2022-10-11T16:06:36.948Z,75.86
2022-10-11T16:09:04.061Z,75.67
2022-10-11T16:11:31.131Z,75.21
2022-10-11T16:14:00.137Z,75.03
2022-10-11T16:16:27.190Z,74.91
2022-10-11T16:18:54.656Z,74.95
2022-10-11T16:21:23.593Z,74.15
2022-10-11T16:23:50.709Z,74.12
2022-10-11T16:26:17.771Z,75.09
2022-10-11T16:28:44.905Z,73.03
2022-10-11T16:31:13.774Z,74.57
2022-10-11T16:33:45.908Z,72.72
2022-10-11T16:36:32.918Z,73.74
2022-10-11T16:39:00.446Z,74.15
2022-10-11T16:41:27.911Z,73.21
2022-10-11T16:43:55.112Z,72.88
2022-10-11T16:46:22.407Z,72.48
2022-10-11T16:48:49.442Z,72.83
2022-10-11T16:51:18.072Z,72.13
2022-10-11T16:53:45.124Z,72.33
2022-10-11T16:56:12.184Z,72.74
2022-10-11T16:58:39.352Z,71.41
2022-10-11T17:01:10.225Z,72.18
2022-10-11T17:03:37.487Z,71.55
2022-10-11T17:06:05.370Z,71.46
2022-10-11T17:08:32.728Z,71.07
2022-10-11T17:11:00.405Z,72.09
2022-10-11T17:13:27.447Z,72.17
2022-10-11T17:15:54.865Z,72.02
2022-10-11T17:18:25.633Z,71.95
2022-10-11T17:21:12.976Z,72.30
2022-10-11T17:23:40.304Z,71.29
2022-10-11T17:26:11.447Z,70.59
2022-10-11T17:28:38.949Z,71.92
2022-10-11T17:31:07.823Z,71.09
2022-10-11T17:33:35.431Z,71.59
2022-10-11T17:36:02.606Z,70.88
2022-10-11T17:38:29.961Z,71.57
2022-10-11T17:41:00.590Z,70.70
2022-10-11T17:43:27.773Z,71.37
2022-10-11T17:45:58.493Z,70.92
2022-10-11T17:48:28.805Z,69.95
2022-10-11T17:50:56.403Z,70.74
2022-10-11T17:53:23.476Z,70.99
2022-10-11T17:55:50.512Z,69.86
2022-10-11T17:58:17.888Z,70.31
2022-10-11T18:00:45.010Z,70.99
2022-10-11T18:03:12.465Z,70.41
2022-10-11T18:05:41.896Z,69.05
2022-10-11T18:08:09.851Z,69.41
2022-10-11T18:10:37.002Z,68.14
2022-10-11T18:13:06.782Z,68.89
2022-10-11T18:15:37.167Z,69.11
2022-10-11T18:18:07.096Z,68.41
2022-10-11T18:20:34.145Z,69.39
2022-10-11T18:23:01.256Z,67.90
2022-10-11T18:25:28.508Z,67.79
2022-10-11T18:27:55.536Z,67.25
2022-10-11T18:30:22.612Z,67.51
2022-10-11T18:32:49.642Z,67.22
2022-10-11T18:35:19.761Z,63.92
2022-10-11T18:37:47.136Z,64.23
2022-10-11T18:40:14.434Z,64.40
2022-10-11T18:42:42.157Z,63.88
2022-10-11T18:45:09.538Z,63.49
2022-10-11T18:47:36.601Z,64.83
2022-10-11T18:50:03.785Z,65.69
2022-10-11T18:52:31.074Z,64.33
2022-10-11T18:54:58.654Z,64.97
2022-10-11T18:57:26.682Z,64.37
2022-10-11T18:59:53.800Z,64.60
2022-10-11T19:02:20.940Z,65.50
2022-10-11T19:04:52.650Z,64.48
2022-10-11T19:07:20.015Z,64.35
2022-10-11T19:09:47.206Z,65.28
2022-10-11T19:12:15.167Z,64.25
2022-10-11T19:14:42.408Z,64.65
2022-10-11T19:17:12.389Z,64.04
2022-10-11T19:19:39.497Z,63.64
2022-10-11T19:22:06.959Z,62.51
2022-10-11T19:24:35.109Z,62.33
2022-10-11T19:27:03.126Z,63.10
2022-10-11T19:29:31.623Z,62.51
2022-10-11T19:31:59.362Z,62.43
2022-10-11T19:34:27.533Z,62.11
2022-10-11T19:36:55.074Z,62.64
2022-10-11T19:39:22.386Z,62.97
2022-10-11T19:41:49.467Z,62.86
2022-10-11T19:44:17.464Z,62.01
2022-10-11T19:46:52.633Z,61.89
2022-10-11T19:49:24.910Z,63.71
2022-10-11T19:51:52.586Z,61.64
2022-10-11T19:54:19.918Z,61.36
2022-10-11T19:56:47.424Z,62.58
2022-10-11T19:59:14.759Z,60.80
2022-10-11T20:01:41.915Z,61.92
2022-10-11T20:04:15.469Z,64.40
2022-10-11T20:06:54.998Z,61.66
2022-10-11T20:09:29.512Z,62.22
2022-10-11T20:11:56.961Z,62.20
2022-10-11T20:14:25.103Z,62.41
2022-10-11T20:16:52.587Z,64.60
2022-10-11T20:19:19.757Z,63.17
2022-10-11T20:21:48.296Z,64.12
2022-10-11T20:24:15.417Z,62.46
2022-10-11T20:26:42.454Z,61.25
2022-10-11T20:29:09.561Z,63.56
2022-10-11T20:31:41.796Z,62.72
2022-10-11T20:34:09.468Z,60.77
2022-10-11T20:36:37.004Z,61.60
2022-10-11T20:39:04.695Z,63.08
2022-10-11T20:41:32.676Z,63.90
2022-10-11T20:44:01.159Z,61.13
2022-10-11T20:46:32.641Z,61.92
2022-10-11T20:49:02.082Z,62.26
2022-10-11T20:51:29.883Z,62.41
2022-10-11T20:53:57.037Z,61.18
2022-10-11T20:56:24.332Z,61.83
2022-10-11T20:58:52.628Z,63.34
2022-10-11T21:01:20.954Z,62.71
2022-10-11T21:03:48.048Z,63.85
2022-10-11T21:06:20.587Z,61.46
2022-10-11T21:08:47.623Z,60.90
2022-10-11T21:11:14.908Z,61.71
2022-10-11T21:13:42.853Z,62.00
2022-10-11T21:16:11.440Z,61.06
2022-10-11T21:18:38.876Z,62.58
2022-10-11T21:21:10.016Z,62.67
2022-10-11T21:23:37.410Z,62.46
2022-10-11T21:26:05.198Z,61.27
2022-10-11T21:28:32.421Z,60.29
2022-10-11T21:31:03.750Z,60.78
2022-10-11T21:33:31.638Z,63.32
2022-10-11T21:35:58.722Z,61.67
2022-10-11T21:38:25.805Z,62.60
2022-10-11T21:40:52.930Z,62.50
2022-10-11T21:43:19.974Z,60.99
2022-10-11T21:45:47.085Z,61.58
2022-10-11T21:48:14.131Z,62.20
2022-10-11T21:50:41.252Z,63.25
2022-10-11T21:53:08.388Z,60.89
2022-10-11T21:55:35.430Z,61.55
2022-10-11T21:58:03.088Z,61.94
2022-10-11T22:00:30.150Z,61.31
2022-10-11T22:02:57.286Z,60.93
2022-10-11T22:05:24.402Z,62.04
2022-10-11T22:07:53.188Z,62.00
2022-10-11T22:10:22.021Z,60.78
2022-10-11T22:12:49.147Z,61.52
2022-10-11T22:15:17.189Z,61.66
2022-10-11T22:17:45.615Z,63.96
2022-10-11T22:20:12.742Z,65.15
2022-10-11T22:22:39.815Z,63.66
2022-10-11T22:25:07.206Z,62.46
2022-10-11T22:27:35.147Z,63.84
2022-10-11T22:30:02.250Z,62.95
2022-10-11T22:32:30.494Z,62.43
2022-10-11T22:34:57.534Z,62.07
2022-10-11T22:37:24.577Z,66.00
2022-10-11T22:39:51.590Z,63.89
2022-10-11T22:42:18.816Z,65.09
2022-10-11T22:44:46.385Z,63.32
2022-10-11T22:47:13.424Z,65.80
2022-10-11T22:49:40.505Z,65.23
2022-10-11T22:52:07.649Z,63.71
2022-10-11T22:54:34.947Z,63.75
2022-10-11T22:57:02.011Z,63.96
2022-10-11T22:59:29.365Z,66.07
2022-10-11T23:01:56.388Z,67.17
2022-10-11T23:04:26.451Z,65.59
2022-10-11T23:06:53.593Z,66.95
2022-10-11T23:09:28.763Z,68.14
2022-10-11T23:11:55.856Z,66.82
2022-10-11T23:14:22.880Z,66.08
2022-10-11T23:16:50.842Z,66.61
2022-10-11T23:19:18.825Z,67.12
2022-10-11T23:21:45.937Z,65.93
2022-10-11T23:24:13.505Z,68.50
2022-10-11T23:26:41.275Z,66.99
2022-10-11T23:29:08.283Z,69.44
2022-10-11T23:31:37.062Z,70.31
2022-10-11T23:34:04.084Z,70.57
2022-10-11T23:36:31.186Z,70.79
2022-10-11T23:38:58.377Z,68.13
2022-10-11T23:41:26.194Z,69.54
2022-10-11T23:43:53.232Z,70.20
2022-10-11T23:46:20.287Z,70.75
2022-10-11T23:48:48.637Z,69.25
2022-10-11T23:51:15.759Z,70.37
2022-10-11T23:53:44.460Z,70.12
2022-10-11T23:56:11.554Z,68.39
2022-10-11T23:58:38.835Z,66.82
